Time;durP1;ratioP1;P1;durP2;ratioP2;P2;SDS_P1;SDS_P2;PMS_P1;PMS_P2;Temp;Humidity;BMP_temperature;BMP_pressure;BME280_temperature;BME280_humidity;BME280_pressure;Samples;Min_cycle;Max_cycle;Signal;HPM_P1;HPM_P2
2022/06/20 00:02:47;;;;;;;15.35;12.50;;;;;;;;;;10419112;28;20053;-80
2022/06/20 00:07:48;;;;;;;16.65;12.75;;;;;;;;;;10434134;28;20037;-78
2022/06/20 00:12:50;;;;;;;15.73;12.15;;;;;;;;;;10421525;28;20109;-81
2022/06/20 00:17:52;;;;;;;15.20;13.55;;;;;;;;;;10445715;28;20133;-82
2022/06/20 00:22:54;;;;;;;16.83;13.60;;;;;;;;;;10412991;28;20044;-84
2022/06/20 00:27:58;;;;;;;16.13;12.80;;;;;;;;;;10427990;28;20053;-80
2022/06/20 00:32:58;;;;;;;14.52;12.27;;;;;;;;;;10401955;28;20049;-80
2022/06/20 00:38:00;;;;;;;15.70;12.98;;;;;;;;;;10391979;28;20053;-81
2022/06/20 00:43:03;;;;;;;15.35;11.73;;;;;;;;;;10429698;28;20053;-79
2022/06/20 00:48:10;;;;;;;17.77;10.57;;;;;;;;;;10428981;28;20104;-80
2022/06/20 00:53:18;;;;;;;13.57;10.23;;;;;;;;;;10416156;28;20042;-79
2022/06/20 00:58:37;;;;;;;11.18;8.10;;;;;;;;;;10374868;28;20515;-79
2022/06/20 01:03:44;;;;;;;11.18;8.50;;;;;;;;;;10384164;28;20049;-79
2022/06/20 01:08:46;;;;;;;12.40;7.95;;;;;;;;;;10401156;28;20037;-78
2022/06/20 01:13:46;;;;;;;;;;;;;;;;;;10401846;28;20049;-78
2022/06/20 01:18:47;;;;;;;11.40;7.43;;;;;;;;;;10396634;28;20280;-80
2022/06/20 01:24:07;;;;;;;9.63;6.55;;;;;;;;;;10394459;28;20135;-81
2022/06/20 01:29:11;;;;;;;10.27;7.30;;;;;;;;;;10384742;28;20155;-78
2022/06/20 01:34:11;;;;;;;;;;;;;;;;;;10387420;28;20125;-81
2022/06/20 01:39:13;;;;;;;10.35;7.60;;;;;;;;;;10414049;28;19928;-77
2022/06/20 01:44:17;;;;;;;12.27;7.38;;;;;;;;;;10401168;28;20037;-79
2022/06/20 01:49:19;;;;;;;12.43;7.30;;;;;;;;;;10410917;28;20089;-81
2022/06/20 01:54:22;;;;;;;10.95;7.60;;;;;;;;;;10390904;28;20076;-79
2022/06/20 01:59:25;;;;;;;10.43;6.97;;;;;;;;;;10395768;28;20072;-77
2022/06/20 02:04:30;;;;;;;9.50;7.43;;;;;;;;;;10405877;28;20041;-79
2022/06/20 02:09:31;;;;;;;13.70;7.57;;;;;;;;;;10430946;28;20079;-79
2022/06/20 02:14:51;;;;;;;11.93;7.30;;;;;;;;;;10403366;28;20038;-80
2022/06/20 02:19:54;;;;;;;10.00;8.43;;;;;;;;;;10424889;28;20289;-78
2022/06/20 02:25:05;;;;;;;8.57;7.60;;;;;;;;;;10384173;28;20078;-78
2022/06/20 02:30:07;;;;;;;11.82;7.80;;;;;;;;;;10398084;28;20127;-84
2022/06/20 02:35:09;;;;;;;9.80;7.20;;;;;;;;;;10389187;28;20481;-79
2022/06/20 02:40:11;;;;;;;7.85;6.85;;;;;;;;;;10397911;28;20132;-78
2022/06/20 02:45:12;;;;;;;10.75;7.43;;;;;;;;;;10417958;28;20046;-78
2022/06/20 02:50:13;;;;;;;9.90;7.20;;;;;;;;;;10439772;28;20041;-78
2022/06/20 02:55:46;;;;;;;13.50;7.53;;;;;;;;;;10409894;28;20053;-79
2022/06/20 03:00:53;;;;;;;10.98;7.78;;;;;;;;;;10389033;28;20505;-77
2022/06/20 03:05:54;;;;;;;10.88;6.80;;;;;;;;;;10412994;28;20060;-77
2022/06/20 03:10:57;;;;;;;11.20;8.25;;;;;;;;;;10400113;28;20045;-79
2022/06/20 03:15:57;;;;;;;12.98;8.02;;;;;;;;;;10404167;28;20057;-78
2022/06/20 03:20:59;;;;;;;11.38;8.25;;;;;;;;;;10420526;28;20049;-77
2022/06/20 03:26:01;;;;;;;11.20;8.07;;;;;;;;;;10409614;28;20164;-77
2022/06/20 03:31:03;;;;;;;12.88;8.35;;;;;;;;;;10392518;28;20133;-78
2022/06/20 03:36:06;;;;;;;13.52;8.38;;;;;;;;;;10374496;28;20104;-78
2022/06/20 03:41:07;;;;;;;12.68;8.57;;;;;;;;;;10392918;28;20048;-79
2022/06/20 03:46:20;;;;;;;11.07;8.45;;;;;;;;;;10391979;28;20075;-77
2022/06/20 03:51:20;;;;;;;;;;;;;;;;;;10395837;28;20103;-78
2022/06/20 03:56:23;;;;;;;11.95;9.05;;;;;;;;;;10418931;28;19921;-80
2022/06/20 04:01:28;;;;;;;13.68;9.27;;;;;;;;;;10384996;28;20789;-79
2022/06/20 04:06:34;;;;;;;11.73;8.48;;;;;;;;;;10382700;28;20401;-79
2022/06/20 04:11:42;;;;;;;11.48;9.10;;;;;;;;;;10395317;28;20443;-78
2022/06/20 04:16:48;;;;;;;11.40;8.90;;;;;;;;;;10405433;28;20053;-78
2022/06/20 04:21:48;;;;;;;11.10;8.88;;;;;;;;;;10410118;28;20084;-79
2022/06/20 04:26:57;;;;;;;11.60;8.50;;;;;;;;;;10422111;28;20513;-77
2022/06/20 04:32:13;;;;;;;14.02;8.90;;;;;;;;;;10400941;28;20044;-79
2022/06/20 04:37:18;;;;;;;12.05;8.63;;;;;;;;;;10397094;28;20049;-83
2022/06/20 04:42:27;;;;;;;13.65;10.50;;;;;;;;;;10396544;28;20143;-77
2022/06/20 04:47:46;;;;;;;15.52;9.80;;;;;;;;;;10397390;28;20037;-78
2022/06/20 04:52:48;;;;;;;15.18;10.82;;;;;;;;;;10402924;28;20117;-78
2022/06/20 04:57:50;;;;;;;14.52;9.55;;;;;;;;;;10383689;28;20107;-76
2022/06/20 05:02:52;;;;;;;12.93;9.60;;;;;;;;;;10384567;28;20045;-75
2022/06/20 05:07:53;;;;;;;13.40;9.68;;;;;;;;;;10387233;28;20480;-74
2022/06/20 05:12:57;;;;;;;12.25;9.77;;;;;;;;;;10393009;28;20058;-77
2022/06/20 05:17:59;;;;;;;13.98;10.48;;;;;;;;;;10393439;28;20061;-74
2022/06/20 05:23:26;;;;;;;14.77;9.98;;;;;;;;;;10387415;28;20467;-74
2022/06/20 05:28:27;;;;;;;10.38;8.85;;;;;;;;;;10378352;28;20389;-75
2022/06/20 05:33:42;;;;;;;13.35;9.68;;;;;;;;;;10389551;28;20076;-76
2022/06/20 05:38:46;;;;;;;13.82;10.00;;;;;;;;;;10385847;28;20077;-74
2022/06/20 05:43:48;;;;;;;14.52;9.23;;;;;;;;;;10397152;28;20041;-75
2022/06/20 05:48:51;;;;;;;11.50;9.02;;;;;;;;;;10381870;28;20465;-76
2022/06/20 05:53:54;;;;;;;11.60;8.95;;;;;;;;;;10381017;28;20049;-76
2022/06/20 05:58:55;;;;;;;12.20;8.95;;;;;;;;;;10395023;28;20133;-75
2022/06/20 06:04:16;;;;;;;11.90;8.82;;;;;;;;;;10395878;28;20048;-73
2022/06/20 06:09:22;;;;;;;10.95;8.43;;;;;;;;;;10393539;28;20077;-75
2022/06/20 06:14:43;;;;;;;11.07;8.75;;;;;;;;;;10386729;28;20049;-74
2022/06/20 06:19:48;;;;;;;11.95;8.32;;;;;;;;;;10386070;28;20058;-75
2022/06/20 06:24:59;;;;;;;10.35;8.45;;;;;;;;;;10382340;28;20062;-75
2022/06/20 06:30:05;;;;;;;13.68;10.18;;;;;;;;;;10403516;28;20663;-75
2022/06/20 06:35:31;;;;;;;12.23;8.25;;;;;;;;;;10390112;28;20069;-79
2022/06/20 06:40:34;;;;;;;11.25;7.95;;;;;;;;;;10356831;28;20083;-75
2022/06/20 06:45:43;;;;;;;13.43;9.02;;;;;;;;;;10374802;28;20150;-76
2022/06/20 06:50:46;;;;;;;11.63;8.48;;;;;;;;;;10396869;28;20061;-76
2022/06/20 06:55:49;;;;;;;15.93;11.48;;;;;;;;;;10377457;28;20038;-76
2022/06/20 07:00:55;;;;;;;12.35;9.07;;;;;;;;;;10387192;28;20053;-75
2022/06/20 07:05:59;;;;;;;12.60;8.77;;;;;;;;;;10376342;28;20053;-75
2022/06/20 07:11:06;;;;;;;13.10;8.82;;;;;;;;;;10372543;28;20046;-75
2022/06/20 07:16:15;;;;;;;14.30;8.48;;;;;;;;;;10384388;28;20525;-78
2022/06/20 07:21:21;;;;;;;13.13;9.30;;;;;;;;;;10384304;28;20069;-75
2022/06/20 07:26:22;;;;;;;14.02;8.80;;;;;;;;;;10384006;28;20057;-74
2022/06/20 07:31:26;;;;;;;9.93;8.57;;;;;;;;;;10376746;28;20050;-75
2022/06/20 07:36:34;;;;;;;18.33;9.55;;;;;;;;;;10380092;28;20552;-76
2022/06/20 07:41:38;;;;;;;11.98;8.13;;;;;;;;;;10371150;28;20377;-75
2022/06/20 07:46:41;;;;;;;11.60;8.52;;;;;;;;;;10376532;28;20046;-75
2022/06/20 07:51:44;;;;;;;15.30;9.40;;;;;;;;;;10386194;28;20057;-75
2022/06/20 07:56:51;;;;;;;13.50;9.07;;;;;;;;;;10396175;28;20045;-77
2022/06/20 08:02:03;;;;;;;14.85;9.75;;;;;;;;;;10398499;28;20089;-76
2022/06/20 08:07:03;;;;;;;11.73;9.15;;;;;;;;;;10360432;28;20120;-75
2022/06/20 08:12:18;;;;;;;12.65;9.43;;;;;;;;;;10397715;28;20052;-75
2022/06/20 08:17:18;;;;;;;11.68;9.15;;;;;;;;;;10396986;28;20068;-75
2022/06/20 08:22:24;;;;;;;13.00;8.20;;;;;;;;;;10395341;28;20399;-76
2022/06/20 08:27:33;;;;;;;11.75;8.70;;;;;;;;;;10389911;28;20046;-76
2022/06/20 08:32:53;;;;;;;9.80;7.95;;;;;;;;;;10404526;28;20044;-75
2022/06/20 08:38:05;;;;;;;9.85;7.13;;;;;;;;;;10417266;28;20048;-74
2022/06/20 08:43:26;;;;;;;9.40;7.88;;;;;;;;;;10416670;28;20056;-76
2022/06/20 08:48:41;;;;;;;12.02;7.18;;;;;;;;;;10428883;28;20053;-75
2022/06/20 08:53:44;;;;;;;9.48;7.38;;;;;;;;;;10409001;28;20058;-76
2022/06/20 08:58:55;;;;;;;9.75;6.85;;;;;;;;;;10383251;28;20054;-76
2022/06/20 09:04:14;;;;;;;7.97;6.60;;;;;;;;;;10390505;28;20061;-76
2022/06/20 09:09:23;;;;;;;8.63;7.15;;;;;;;;;;10426141;28;20029;-77
2022/06/20 09:14:42;;;;;;;9.32;7.47;;;;;;;;;;10414351;28;20076;-78
2022/06/20 09:20:03;;;;;;;8.77;7.30;;;;;;;;;;10423571;28;20054;-76
2022/06/20 09:25:06;;;;;;;11.38;8.23;;;;;;;;;;10410938;28;20148;-76
2022/06/20 09:30:18;;;;;;;11.27;7.10;;;;;;;;;;10396747;28;20049;-78
2022/06/20 09:35:32;;;;;;;9.43;7.47;;;;;;;;;;10387335;28;20054;-77
2022/06/20 09:40:39;;;;;;;12.57;6.88;;;;;;;;;;10401739;28;20172;-76
2022/06/20 09:45:58;;;;;;;13.43;7.53;;;;;;;;;;10402627;28;20492;-75
2022/06/20 09:51:04;;;;;;;9.70;6.18;;;;;;;;;;10393741;28;20508;-78
2022/06/20 09:56:11;;;;;;;9.27;6.57;;;;;;;;;;10390702;28;20401;-77
2022/06/20 10:01:21;;;;;;;9.63;6.72;;;;;;;;;;10398272;28;20062;-76
2022/06/20 10:06:21;;;;;;;12.38;6.40;;;;;;;;;;10393286;28;20129;-77
2022/06/20 10:11:54;;;;;;;7.03;6.03;;;;;;;;;;10427138;28;20362;-76
2022/06/20 10:17:00;;;;;;;10.30;5.72;;;;;;;;;;10381055;28;20075;-78
2022/06/20 10:22:00;;;;;;;4.97;4.53;;;;;;;;;;10414344;28;20522;-79
2022/06/20 10:27:15;;;;;;;7.27;3.93;;;;;;;;;;10409818;28;20088;-77
2022/06/20 10:32:20;;;;;;;9.48;4.88;;;;;;;;;;10394885;28;20041;-78
2022/06/20 10:37:24;;;;;;;7.45;4.43;;;;;;;;;;10399857;28;20084;-79
2022/06/20 10:42:32;;;;;;;8.38;5.10;;;;;;;;;;10402536;28;20058;-81
2022/06/20 10:47:43;;;;;;;8.65;5.85;;;;;;;;;;10430457;28;20102;-79
2022/06/20 10:52:46;;;;;;;7.18;4.70;;;;;;;;;;10406649;28;20105;-77
2022/06/20 10:58:05;;;;;;;10.52;4.70;;;;;;;;;;10406074;28;20097;-78
2022/06/20 11:03:24;;;;;;;7.40;4.45;;;;;;;;;;10400337;28;20046;-79
2022/06/20 11:08:30;;;;;;;6.95;4.53;;;;;;;;;;10403751;28;20072;-78
2022/06/20 11:13:30;;;;;;;9.52;5.75;;;;;;;;;;10401589;28;20118;-76
2022/06/20 11:18:38;;;;;;;7.33;3.93;;;;;;;;;;10394404;28;20500;-78
2022/06/20 11:23:41;;;;;;;6.57;4.95;;;;;;;;;;10403002;28;20061;-78
2022/06/20 11:28:51;;;;;;;8.73;5.32;;;;;;;;;;10398255;28;20053;-77
2022/06/20 11:34:09;;;;;;;8.25;4.45;;;;;;;;;;10401926;28;20041;-77
2022/06/20 11:39:15;;;;;;;7.13;3.95;;;;;;;;;;10394468;28;20061;-77
2022/06/20 11:44:23;;;;;;;6.38;4.15;;;;;;;;;;10391708;28;20064;-79
2022/06/20 11:49:43;;;;;;;5.28;3.75;;;;;;;;;;10410413;28;20053;-75
2022/06/20 11:55:04;;;;;;;6.03;3.85;;;;;;;;;;10407654;28;20112;-77
2022/06/20 12:00:04;;;;;;;5.95;3.03;;;;;;;;;;10393708;28;20145;-78
2022/06/20 12:05:15;;;;;;;6.13;3.15;;;;;;;;;;10401294;28;20037;-77
2022/06/20 12:10:31;;;;;;;5.45;2.70;;;;;;;;;;10388688;28;20041;-79
2022/06/20 12:15:44;;;;;;;6.95;2.83;;;;;;;;;;10409100;28;20053;-77
2022/06/20 12:26:11;;;;;;;3.47;2.47;;;;;;;;;;10384127;28;20125;-77
2022/06/20 12:31:12;;;;;;;6.30;2.97;;;;;;;;;;10392366;28;20132;-78
2022/06/20 12:36:41;;;;;;;4.63;2.42;;;;;;;;;;10382385;28;20056;-77
2022/06/20 12:41:48;;;;;;;6.20;2.92;;;;;;;;;;10377334;28;20135;-75
2022/06/20 12:47:07;;;;;;;6.20;2.78;;;;;;;;;;10393265;28;20080;-76
2022/06/20 12:52:29;;;;;;;5.20;2.92;;;;;;;;;;10391435;28;20508;-82
2022/06/20 12:57:49;;;;;;;3.45;2.70;;;;;;;;;;10391698;28;20054;-77
2022/06/20 13:03:04;;;;;;;6.18;2.60;;;;;;;;;;10429062;28;20054;-76
2022/06/20 13:08:20;;;;;;;7.93;3.45;;;;;;;;;;10418269;28;20776;-77
2022/06/20 13:13:39;;;;;;;8.05;3.05;;;;;;;;;;10393155;28;20056;-76
2022/06/20 13:18:50;;;;;;;5.05;3.30;;;;;;;;;;10398636;28;20591;-78
2022/06/20 13:23:51;;;;;;;3.63;2.60;;;;;;;;;;10386655;28;20489;-78
2022/06/20 13:29:06;;;;;;;5.27;2.80;;;;;;;;;;10388105;28;20049;-76
2022/06/20 13:34:10;;;;;;;5.43;3.00;;;;;;;;;;10362431;28;20302;-77
2022/06/20 13:39:19;;;;;;;4.13;3.50;;;;;;;;;;10374415;28;20201;-77
2022/06/20 13:44:34;;;;;;;6.13;3.33;;;;;;;;;;10381886;28;20441;-78
2022/06/20 13:49:47;;;;;;;4.25;3.10;;;;;;;;;;10393816;28;20124;-77
2022/06/20 13:54:54;;;;;;;4.43;3.20;;;;;;;;;;10384744;28;20140;-76
2022/06/20 14:00:14;;;;;;;3.63;3.20;;;;;;;;;;10380164;28;20049;-77
2022/06/20 14:05:17;;;;;;;5.78;3.38;;;;;;;;;;10391087;28;20045;-77
2022/06/20 14:10:20;;;;;;;6.95;3.20;;;;;;;;;;10377546;28;20485;-78
2022/06/20 14:15:41;;;;;;;7.22;4.47;;;;;;;;;;10392646;28;20525;-77
2022/06/20 14:21:02;;;;;;;5.07;3.65;;;;;;;;;;10398928;28;20062;-80
2022/06/20 14:26:05;;;;;;;5.05;3.53;;;;;;;;;;10394860;28;20408;-79
2022/06/20 14:31:08;;;;;;;4.28;3.70;;;;;;;;;;10389429;28;20049;-79
2022/06/20 14:36:27;;;;;;;6.45;4.07;;;;;;;;;;10394996;28;20373;-79
2022/06/20 14:41:39;;;;;;;6.15;3.90;;;;;;;;;;10395774;28;20076;-79
2022/06/20 14:46:45;;;;;;;5.38;3.75;;;;;;;;;;10374548;28;20052;-81
2022/06/20 14:51:53;;;;;;;4.65;3.60;;;;;;;;;;10384584;28;20480;-78
2022/06/20 14:57:32;;;;;;;4.35;3.80;;;;;;;;;;10403175;28;20053;-78
2022/06/20 15:02:41;;;;;;;6.55;4.05;;;;;;;;;;10284603;28;20055;-75
2022/06/20 15:07:59;;;;;;;4.13;3.50;;;;;;;;;;10402794;28;20048;-80
2022/06/20 15:13:03;;;;;;;4.88;3.47;;;;;;;;;;10419919;28;20045;-78
2022/06/20 15:18:03;;;;;;;4.75;3.75;;;;;;;;;;10414097;28;20149;-76
2022/06/20 15:23:16;;;;;;;3.30;3.00;;;;;;;;;;10399269;28;20051;-79
2022/06/20 15:28:18;;;;;;;4.07;3.65;;;;;;;;;;10399712;28;20356;-77
2022/06/20 15:33:32;;;;;;;4.37;2.80;;;;;;;;;;10393366;28;20067;-77
2022/06/20 15:38:33;;;;;;;2.75;2.30;;;;;;;;;;10394293;28;20066;-76
2022/06/20 15:43:45;;;;;;;2.78;1.67;;;;;;;;;;10388947;28;20049;-77
2022/06/20 15:48:57;;;;;;;2.95;1.88;;;;;;;;;;10405708;28;20415;-77
2022/06/20 15:54:03;;;;;;;2.17;1.17;;;;;;;;;;10387351;28;20081;-79
2022/06/20 15:59:04;;;;;;;2.13;1.20;;;;;;;;;;10385801;28;20530;-76
2022/06/20 16:04:21;;;;;;;2.50;1.30;;;;;;;;;;10385809;28;20053;-78
2022/06/20 16:09:37;;;;;;;1.92;1.25;;;;;;;;;;10378749;28;20099;-77
2022/06/20 16:14:55;;;;;;;1.67;1.20;;;;;;;;;;10393079;28;20045;-77
2022/06/20 16:19:58;;;;;;;1.38;1.27;;;;;;;;;;10390694;28;20380;-77
2022/06/20 16:25:04;;;;;;;3.10;1.30;;;;;;;;;;10394448;28;20081;-77
2022/06/20 16:30:34;;;;;;;1.92;1.25;;;;;;;;;;10387249;28;20053;-79
2022/06/20 16:35:34;;;;;;;2.05;1.10;;;;;;;;;;10386141;28;20465;-78
2022/06/20 16:40:40;;;;;;;1.25;1.10;;;;;;;;;;10398632;28;20053;-78
2022/06/20 16:45:53;;;;;;;2.42;1.30;;;;;;;;;;10392399;28;20459;-78
2022/06/20 16:51:01;;;;;;;1.33;1.00;;;;;;;;;;10409230;28;20151;-77
2022/06/20 16:56:03;;;;;;;2.58;1.20;;;;;;;;;;10403258;28;20045;-77
2022/06/20 17:01:19;;;;;;;1.65;0.70;;;;;;;;;;10387179;28;20484;-77
2022/06/20 17:06:27;;;;;;;1.88;1.00;;;;;;;;;;10407612;28;20069;-76
2022/06/20 17:11:30;;;;;;;0.80;0.70;;;;;;;;;;10406521;28;20089;-76
2022/06/20 17:16:51;;;;;;;1.02;0.88;;;;;;;;;;10519495;22;20052;-77
2022/06/20 17:22:07;;;;;;;2.53;1.13;;;;;;;;;;10467959;28;20049;-76
2022/06/20 17:27:26;;;;;;;1.50;1.00;;;;;;;;;;10497564;28;20041;-78
2022/06/20 17:32:35;;;;;;;1.65;1.00;;;;;;;;;;10453977;28;20063;-76
2022/06/20 17:37:46;;;;;;;2.10;1.00;;;;;;;;;;10452042;28;20045;-77
2022/06/20 17:42:59;;;;;;;1.00;0.90;;;;;;;;;;10439699;28;20083;-75
2022/06/20 17:48:07;;;;;;;2.83;1.38;;;;;;;;;;10429759;28;20049;-77
2022/06/20 17:53:15;;;;;;;1.63;0.88;;;;;;;;;;10430957;28;20404;-76
2022/06/20 17:58:19;;;;;;;1.33;0.80;;;;;;;;;;10425085;28;20072;-77
2022/06/20 18:03:24;;;;;;;1.05;0.70;;;;;;;;;;10444953;28;20053;-76
2022/06/20 18:08:32;;;;;;;1.20;0.77;;;;;;;;;;10434534;28;20111;-77
2022/06/20 18:13:43;;;;;;;1.05;0.82;;;;;;;;;;10443622;28;20391;-79
2022/06/20 18:18:47;;;;;;;1.88;1.10;;;;;;;;;;10395003;28;20054;-79
2022/06/20 18:23:50;;;;;;;1.45;1.08;;;;;;;;;;10379987;28;20041;-78
2022/06/20 18:28:55;;;;;;;1.45;0.80;;;;;;;;;;10419530;28;20073;-79
2022/06/20 18:33:57;;;;;;;1.45;0.80;;;;;;;;;;10393581;28;20145;-77
2022/06/20 18:39:14;;;;;;;2.35;1.00;;;;;;;;;;10418403;28;20046;-77
2022/06/20 18:44:15;;;;;;;9.10;5.90;;;;;;;;;;10408511;28;20060;-78
2022/06/20 18:49:35;;;;;;;1.67;0.90;;;;;;;;;;10410603;28;20049;-77
2022/06/20 18:54:46;;;;;;;1.52;0.88;;;;;;;;;;10421176;28;20087;-76
2022/06/20 18:59:54;;;;;;;1.33;1.00;;;;;;;;;;10405803;28;20144;-77
2022/06/20 19:04:57;;;;;;;2.88;1.20;;;;;;;;;;10393021;28;20038;-73
2022/06/20 19:10:04;;;;;;;2.20;1.30;;;;;;;;;;10399051;28;20696;-75
2022/06/20 19:15:16;;;;;;;1.73;1.00;;;;;;;;;;10456741;28;20045;-74
2022/06/20 19:20:17;;;;;;;2.73;1.60;;;;;;;;;;10437065;28;20072;-77
2022/06/20 19:25:20;;;;;;;1.92;1.25;;;;;;;;;;10396934;28;20064;-76
2022/06/20 19:30:52;;;;;;;3.10;1.40;;;;;;;;;;10421404;28;20049;-76
2022/06/20 19:35:55;;;;;;;2.90;1.20;;;;;;;;;;10376887;28;20420;-75
2022/06/20 19:41:01;;;;;;;2.92;1.40;;;;;;;;;;10414232;28;20835;-75
2022/06/20 19:46:03;;;;;;;2.47;1.40;;;;;;;;;;10413886;28;20060;-75
2022/06/20 19:51:11;;;;;;;3.10;1.40;;;;;;;;;;10425936;28;20045;-78
2022/06/20 19:56:12;;;;;;;3.88;1.60;;;;;;;;;;10400896;28;20111;-76
2022/06/20 20:01:31;;;;;;;2.38;1.45;;;;;;;;;;10443337;28;20045;-76
2022/06/20 20:06:53;;;;;;;4.72;2.00;;;;;;;;;;10432110;28;20057;-77
2022/06/20 20:11:54;;;;;;;9.68;3.38;;;;;;;;;;10408422;28;20044;-75
2022/06/20 20:16:56;;;;;;;8.10;2.70;;;;;;;;;;10430020;28;20049;-73
2022/06/20 20:21:58;;;;;;;6.77;3.40;;;;;;;;;;10418372;28;20292;-74
2022/06/20 20:26:59;;;;;;;3.67;2.00;;;;;;;;;;10418357;28;20285;-74
2022/06/20 20:31:59;;;;;;;5.03;2.30;;;;;;;;;;10417070;28;20049;-75
2022/06/20 20:37:18;;;;;;;5.93;2.42;;;;;;;;;;10444676;28;20045;-77
2022/06/20 20:42:21;;;;;;;7.70;3.42;;;;;;;;;;10394131;28;20052;-73
2022/06/20 20:47:24;;;;;;;5.45;2.53;;;;;;;;;;10397668;28;20092;-75
2022/06/20 20:52:25;;;;;;;;;;;;;;;;;;10434595;28;20124;-74
2022/06/20 20:57:27;;;;;;;5.45;2.58;;;;;;;;;;10413533;28;19923;-74
2022/06/20 21:02:34;;;;;;;5.00;2.47;;;;;;;;;;10432949;28;20555;-74
2022/06/20 21:07:37;;;;;;;2.53;2.10;;;;;;;;;;10421057;28;20048;-75
2022/06/20 21:12:43;;;;;;;4.50;2.17;;;;;;;;;;10419128;28;20104;-74
2022/06/20 21:17:54;;;;;;;3.72;2.08;;;;;;;;;;10434641;28;20072;-76
2022/06/20 21:22:55;;;;;;;4.30;2.25;;;;;;;;;;10424652;28;20076;-74
2022/06/20 21:27:56;;;;;;;4.60;2.17;;;;;;;;;;10426111;28;20045;-74
2022/06/20 21:32:56;;;;;;;3.30;2.60;;;;;;;;;;10427260;28;20779;-73
2022/06/20 21:38:01;;;;;;;6.03;2.90;;;;;;;;;;10424948;28;20489;-74
2022/06/20 21:43:04;;;;;;;3.05;2.25;;;;;;;;;;10379032;28;20075;-72
2022/06/20 21:48:04;;;;;;;3.00;2.00;;;;;;;;;;10416419;28;20128;-74
2022/06/20 21:53:12;;;;;;;2.90;2.20;;;;;;;;;;10428235;28;20135;-75
2022/06/20 21:58:21;;;;;;;4.13;2.50;;;;;;;;;;10419007;28;20049;-73
2022/06/20 22:08:44;;;;;;;3.95;2.55;;;;;;;;;;10416278;28;20050;-74
2022/06/20 22:13:45;;;;;;;3.15;2.30;;;;;;;;;;10423102;28;20060;-75
2022/06/20 22:18:55;;;;;;;4.15;2.60;;;;;;;;;;10428716;28;20132;-75
2022/06/20 22:24:18;;;;;;;4.07;2.80;;;;;;;;;;10429535;28;20122;-74
2022/06/20 22:29:37;;;;;;;2.72;2.40;;;;;;;;;;10393374;28;20049;-74
2022/06/20 22:34:38;;;;;;;4.60;2.35;;;;;;;;;;10429578;28;20453;-74
2022/06/20 22:39:46;;;;;;;3.35;2.60;;;;;;;;;;10435476;28;20067;-74
2022/06/20 22:44:46;;;;;;;2.80;2.35;;;;;;;;;;10433111;28;20119;-76
2022/06/20 22:49:47;;;;;;;4.20;2.80;;;;;;;;;;10432389;28;20041;-74
2022/06/20 22:54:51;;;;;;;4.82;2.63;;;;;;;;;;10419646;28;20075;-73
2022/06/20 22:59:56;;;;;;;3.08;2.78;;;;;;;;;;10407913;28;20067;-74
2022/06/20 23:05:01;;;;;;;5.43;3.13;;;;;;;;;;10424077;28;20052;-76
2022/06/20 23:10:01;;;;;;;2.83;2.58;;;;;;;;;;10417149;28;20044;-74
2022/06/20 23:15:02;;;;;;;2.88;2.67;;;;;;;;;;10389387;28;20404;-73
2022/06/20 23:20:03;;;;;;;4.15;3.20;;;;;;;;;;10416853;28;20388;-72
2022/06/20 23:25:14;;;;;;;3.35;3.05;;;;;;;;;;10419807;28;20120;-74
2022/06/20 23:30:15;;;;;;;4.28;2.90;;;;;;;;;;10404973;28;20156;-77
2022/06/20 23:35:21;;;;;;;3.63;3.10;;;;;;;;;;10433154;28;20056;-74
2022/06/20 23:40:26;;;;;;;4.25;3.20;;;;;;;;;;10418378;28;20164;-74
2022/06/20 23:45:27;;;;;;;3.38;3.08;;;;;;;;;;10443184;28;20049;-72
2022/06/20 23:50:30;;;;;;;3.40;3.10;;;;;;;;;;10437086;28;20061;-74
2022/06/20 23:55:30;;;;;;;4.43;3.10;;;;;;;;;;10434011;28;20105;-74
